Weather at Humberto Delgado Airport (Lisbon Portela Airport)

Public forecast

Using degrees Celsius for public forecast. Weather courtesy of forecast.io.

Current aviation weather report (METAR) for Humberto Delgado Airport (Lisbon Portela Airport)

Retrieved 2021/11/29 18:00 UTC (14 minutes ago):

LPPT 291800Z 31005KT 270V350 9999 FEW028 BKN034 13/07 Q1025

Aviation forecast (TAF) for Humberto Delgado Airport (Lisbon Portela Airport)

Retrieved 2021/11/29 18:18 UTC (0 seconds ago):

TAF LPPT 291700Z 2918/3024 33008KT 9999 FEW020 BKN035 BECMG 3000/3002 VRB02KT SCT012 BECMG 3004/3006 05007KT 5000 BR BKN008 PROB40 TEMPO 3006/3010 1200 PRFG BKN003 BECMG 3011/3013 9999 NSW SCT012 BECMG 3015/3017 FEW030 BECMG 3018/3021 VRB02KT